createdAt,value
2018-12-06T00:00:45.155Z,7.23
2018-12-06T00:03:08.313Z,8.47
2018-12-06T00:05:31.433Z,11.63
2018-12-06T00:08:06.411Z,8.60
2018-12-06T00:10:29.561Z,9.37
2018-12-06T00:12:52.654Z,8.67
2018-12-06T00:15:24.999Z,8.50
2018-12-06T00:17:48.093Z,10.40
2018-12-06T00:20:11.196Z,8.63
2018-12-06T00:22:34.306Z,8.60
2018-12-06T00:24:57.406Z,8.93
2018-12-06T00:27:20.514Z,11.33
2018-12-06T00:29:47.510Z,11.60
2018-12-06T00:32:10.631Z,11.47
2018-12-06T00:34:33.757Z,10.10
2018-12-06T00:36:56.880Z,11.47
2018-12-06T00:39:19.964Z,8.20
2018-12-06T00:41:43.157Z,10.17
2018-12-06T00:44:06.314Z,9.57
2018-12-06T00:46:29.421Z,9.57
2018-12-06T00:48:52.509Z,8.70
2018-12-06T00:51:15.661Z,8.67
2018-12-06T00:53:38.776Z,8.10
2018-12-06T00:56:01.915Z,6.90
2018-12-06T00:58:25.018Z,9.63
2018-12-06T01:00:48.156Z,10.57
2018-12-06T01:03:11.264Z,8.90
2018-12-06T01:05:34.694Z,7.60
2018-12-06T01:07:57.802Z,7.70
2018-12-06T01:10:20.903Z,10.40
2018-12-06T01:12:44.040Z,7.47
2018-12-06T01:15:07.201Z,9.90
2018-12-06T01:17:30.310Z,8.73
2018-12-06T01:19:53.408Z,8.30
2018-12-06T01:22:16.556Z,8.17
2018-12-06T01:24:39.649Z,7.67
2018-12-06T01:27:02.737Z,8.80
2018-12-06T01:29:25.880Z,8.03
2018-12-06T01:31:49.094Z,5.50
2018-12-06T01:34:12.231Z,12.50
2018-12-06T01:36:35.327Z,8.60
2018-12-06T01:38:58.453Z,11.43
2018-12-06T01:41:21.560Z,8.37
2018-12-06T01:43:44.670Z,10.43
2018-12-06T01:46:07.816Z,6.97
2018-12-06T01:48:31.051Z,8.97
2018-12-06T01:50:54.238Z,8.77
2018-12-06T01:53:17.349Z,10.20
2018-12-06T01:55:40.463Z,11.87
2018-12-06T01:58:03.655Z,10.77
2018-12-06T02:00:26.777Z,8.00
2018-12-06T02:02:49.926Z,12.87
2018-12-06T02:05:13.062Z,6.80
2018-12-06T02:07:36.185Z,12.20
2018-12-06T02:09:59.340Z,8.70
2018-12-06T02:12:22.432Z,12.27
2018-12-06T02:14:45.583Z,7.50
2018-12-06T02:17:08.705Z,11.03
2018-12-06T02:19:31.806Z,10.60
2018-12-06T02:21:54.904Z,10.57
2018-12-06T02:24:18.086Z,14.17
2018-12-06T02:26:41.194Z,9.60
2018-12-06T02:29:04.356Z,8.83
2018-12-06T02:31:27.470Z,9.57
2018-12-06T02:33:50.599Z,8.63
2018-12-06T02:36:13.744Z,10.63
2018-12-06T02:38:36.853Z,9.50
2018-12-06T02:41:00.013Z,10.03
2018-12-06T02:43:23.113Z,11.13
2018-12-06T02:45:46.238Z,10.03
2018-12-06T02:48:09.402Z,8.40
2018-12-06T02:50:32.558Z,9.43
2018-12-06T02:52:55.692Z,10.40
2018-12-06T02:55:18.811Z,10.17
2018-12-06T02:57:41.917Z,11.37
2018-12-06T03:00:05.185Z,11.40
2018-12-06T03:02:28.301Z,8.63
2018-12-06T03:04:51.417Z,8.37
2018-12-06T03:07:14.499Z,7.27
2018-12-06T03:09:37.653Z,11.93
2018-12-06T03:12:00.798Z,8.50
2018-12-06T03:14:23.959Z,6.77
2018-12-06T03:16:47.074Z,8.57
2018-12-06T03:19:10.191Z,12.30
2018-12-06T03:21:33.307Z,6.93
2018-12-06T03:23:56.441Z,10.03
2018-12-06T03:26:19.603Z,11.23
2018-12-06T03:28:42.697Z,8.53
2018-12-06T03:31:05.828Z,9.53
2018-12-06T03:33:28.936Z,10.83
2018-12-06T03:35:52.060Z,8.27
2018-12-06T03:38:15.165Z,9.23
2018-12-06T03:40:38.260Z,10.47
2018-12-06T03:43:01.388Z,8.83
2018-12-06T03:45:24.486Z,8.17
2018-12-06T03:47:47.612Z,8.17
2018-12-06T03:50:10.720Z,6.13
2018-12-06T03:52:33.829Z,5.17
2018-12-06T03:54:56.920Z,10.07
2018-12-06T03:57:20.012Z,8.80
2018-12-06T04:02:12.609Z,7.60
2018-12-06T04:04:35.924Z,6.80
2018-12-06T04:06:59.042Z,10.63
2018-12-06T04:09:22.181Z,8.00
2018-12-06T04:11:45.343Z,7.70
2018-12-06T04:14:08.496Z,7.13
2018-12-06T04:16:31.592Z,6.33
2018-12-06T04:18:54.843Z,9.20
2018-12-06T04:21:17.964Z,8.77
2018-12-06T04:23:41.088Z,10.70
2018-12-06T04:26:04.209Z,8.87
2018-12-06T04:28:27.328Z,10.43
2018-12-06T04:30:50.430Z,8.63
2018-12-06T04:33:13.556Z,11.10
2018-12-06T04:35:36.664Z,8.00
2018-12-06T04:37:59.767Z,8.50
2018-12-06T04:40:22.876Z,9.87
2018-12-06T04:42:45.982Z,8.27
2018-12-06T04:45:10.675Z,8.10
2018-12-06T04:47:33.965Z,8.03
2018-12-06T04:49:57.113Z,8.50
2018-12-06T04:52:20.195Z,6.87
2018-12-06T04:54:43.343Z,8.57
2018-12-06T04:57:06.488Z,6.57
2018-12-06T04:59:29.576Z,8.77
2018-12-06T05:01:52.730Z,9.83
2018-12-06T05:04:15.906Z,7.97
2018-12-06T05:06:39.021Z,9.93
2018-12-06T05:09:02.164Z,9.93
2018-12-06T05:11:25.299Z,7.53
2018-12-06T05:13:48.431Z,8.43
2018-12-06T05:16:11.548Z,8.00
2018-12-06T05:18:34.643Z,5.67
2018-12-06T05:20:57.763Z,8.03
2018-12-06T05:23:20.859Z,7.33
2018-12-06T05:25:44.016Z,6.47
2018-12-06T05:28:07.113Z,12.33
2018-12-06T05:30:30.223Z,11.50
2018-12-06T05:32:53.348Z,8.13
2018-12-06T05:35:16.445Z,9.20
2018-12-06T05:37:39.564Z,8.87
2018-12-06T05:40:02.733Z,9.27
2018-12-06T05:42:25.871Z,9.97
2018-12-06T05:44:48.952Z,9.87
2018-12-06T05:47:12.082Z,8.87
2018-12-06T05:49:35.183Z,7.57
2018-12-06T05:51:58.331Z,8.93
2018-12-06T05:54:21.435Z,7.67
2018-12-06T05:56:44.526Z,8.57
2018-12-06T05:59:07.636Z,6.57
2018-12-06T06:01:30.741Z,6.83
2018-12-06T06:03:54.018Z,7.63
2018-12-06T06:06:17.115Z,6.03
2018-12-06T06:08:40.270Z,8.53
2018-12-06T06:11:03.382Z,7.03
2018-12-06T06:13:26.528Z,10.27
2018-12-06T06:15:49.651Z,7.43
2018-12-06T06:18:12.759Z,6.37
2018-12-06T06:20:35.882Z,6.60
2018-12-06T06:22:58.994Z,11.00
2018-12-06T06:25:22.080Z,11.77
2018-12-06T06:27:45.209Z,10.47
2018-12-06T06:30:08.466Z,10.73
2018-12-06T06:32:31.639Z,10.77
2018-12-06T06:34:54.755Z,11.73
2018-12-06T06:37:17.879Z,8.63
2018-12-06T06:39:40.990Z,10.03
2018-12-06T06:42:04.145Z,10.33
2018-12-06T06:44:27.306Z,7.83
2018-12-06T06:46:50.402Z,10.90
2018-12-06T06:49:14.111Z,8.73
2018-12-06T06:51:37.543Z,9.17
2018-12-06T06:54:00.663Z,10.97
2018-12-06T06:56:23.846Z,9.67
2018-12-06T06:58:46.951Z,10.37
2018-12-06T07:01:10.086Z,6.43
2018-12-06T07:03:33.227Z,6.73
2018-12-06T07:05:56.454Z,8.97
2018-12-06T07:08:19.562Z,9.30
2018-12-06T07:10:42.702Z,9.80
2018-12-06T07:13:05.828Z,10.17
2018-12-06T07:15:28.934Z,8.97
2018-12-06T07:17:52.016Z,9.97
2018-12-06T07:20:15.217Z,10.43
2018-12-06T07:22:38.344Z,8.13
2018-12-06T07:25:01.453Z,12.37
2018-12-06T07:27:24.758Z,11.03
2018-12-06T07:29:48.641Z,9.13
2018-12-06T07:32:11.860Z,8.27
2018-12-06T07:34:34.977Z,15.30
2018-12-06T07:36:58.137Z,8.97
2018-12-06T07:39:21.282Z,11.43
2018-12-06T07:41:44.390Z,15.20
2018-12-06T07:44:07.486Z,8.60
2018-12-06T07:46:30.663Z,12.63
2018-12-06T07:48:53.934Z,11.47
2018-12-06T07:51:17.032Z,12.20
2018-12-06T07:53:40.162Z,15.00
2018-12-06T07:56:03.299Z,14.33
2018-12-06T07:58:26.444Z,11.87
2018-12-06T08:00:49.528Z,12.37
2018-12-06T08:03:12.690Z,13.27
2018-12-06T08:05:35.802Z,12.03
2018-12-06T08:07:58.908Z,11.63
2018-12-06T08:10:22.050Z,14.77
2018-12-06T08:12:45.227Z,12.60
2018-12-06T08:15:08.604Z,14.17
2018-12-06T08:17:31.754Z,15.10
2018-12-06T08:19:54.838Z,17.53
2018-12-06T08:22:17.991Z,15.00
2018-12-06T08:24:41.123Z,17.80
2018-12-06T08:27:04.286Z,17.57
2018-12-06T08:29:27.380Z,15.67
2018-12-06T08:31:50.507Z,16.37
2018-12-06T08:34:13.622Z,22.87
2018-12-06T08:36:36.729Z,21.10
2018-12-06T08:38:59.856Z,21.03
2018-12-06T08:41:22.952Z,16.33
2018-12-06T08:43:46.116Z,17.70
2018-12-06T08:46:09.251Z,18.20
2018-12-06T08:48:32.349Z,18.87
2018-12-06T08:50:55.477Z,19.73
2018-12-06T08:53:18.575Z,20.13
2018-12-06T08:55:41.766Z,19.47
2018-12-06T08:58:04.882Z,22.77
2018-12-06T09:00:28.048Z,19.60
2018-12-06T09:02:51.155Z,21.50
2018-12-06T09:05:14.299Z,20.90
2018-12-06T09:07:37.508Z,20.93
2018-12-06T09:10:00.615Z,25.77
2018-12-06T09:12:23.738Z,38.83
2018-12-06T09:14:46.893Z,55.33
2018-12-06T09:17:10.025Z,32.23
2018-12-06T09:19:33.148Z,24.63
2018-12-06T09:21:56.298Z,23.60
2018-12-06T09:24:19.445Z,24.47
2018-12-06T09:26:42.548Z,24.40
2018-12-06T09:29:05.659Z,22.50
2018-12-06T09:31:29.557Z,22.83
2018-12-06T09:34:01.160Z,22.97
2018-12-06T09:36:24.280Z,29.00
2018-12-06T09:38:47.394Z,25.77
2018-12-06T09:41:10.568Z,23.73
2018-12-06T09:43:33.678Z,26.83
2018-12-06T09:45:56.818Z,28.43
2018-12-06T09:48:19.942Z,24.73
2018-12-06T09:50:43.153Z,26.37
2018-12-06T09:53:06.342Z,26.37
2018-12-06T09:55:29.555Z,22.77
2018-12-06T09:57:52.699Z,21.87
2018-12-06T10:00:16.186Z,25.00
2018-12-06T10:02:39.327Z,25.83
2018-12-06T10:05:02.478Z,25.33
2018-12-06T10:07:27.313Z,26.30
2018-12-06T10:09:50.506Z,22.90
2018-12-06T10:12:13.619Z,25.20
2018-12-06T10:14:36.799Z,24.17
2018-12-06T10:16:59.907Z,25.00
2018-12-06T10:19:23.028Z,25.53
2018-12-06T10:21:46.177Z,25.10
2018-12-06T10:24:09.325Z,27.50
2018-12-06T10:26:32.508Z,24.00
2018-12-06T10:28:55.638Z,25.00
2018-12-06T10:31:18.803Z,23.37
2018-12-06T10:33:44.803Z,23.27
2018-12-06T10:36:07.988Z,24.90
2018-12-06T10:38:32.628Z,26.43
2018-12-06T10:40:55.750Z,24.67
2018-12-06T10:43:18.868Z,25.63
2018-12-06T10:45:42.021Z,25.27
2018-12-06T10:48:05.236Z,23.30
2018-12-06T10:50:28.338Z,27.90
2018-12-06T10:52:52.963Z,23.67
2018-12-06T10:55:16.093Z,21.70
2018-12-06T10:57:39.190Z,22.63
2018-12-06T11:00:02.368Z,22.70
2018-12-06T11:02:29.187Z,23.07
2018-12-06T11:04:52.344Z,21.57
2018-12-06T11:07:15.486Z,22.07
2018-12-06T11:09:38.594Z,19.47
2018-12-06T11:12:01.773Z,24.10
2018-12-06T11:14:25.678Z,19.73
2018-12-06T11:16:48.809Z,20.03
2018-12-06T11:19:12.784Z,22.27
2018-12-06T11:21:35.888Z,18.73
2018-12-06T11:23:59.050Z,23.10
2018-12-06T11:26:22.128Z,26.10
2018-12-06T11:28:45.220Z,21.63
2018-12-06T11:31:08.411Z,20.53
2018-12-06T11:33:31.544Z,20.73
2018-12-06T11:35:54.661Z,22.00
2018-12-06T11:38:17.832Z,20.87
2018-12-06T11:40:40.970Z,19.40
2018-12-06T11:43:05.718Z,19.23
2018-12-06T11:45:28.891Z,15.80
2018-12-06T11:47:52.010Z,17.30
2018-12-06T11:50:15.117Z,15.97
2018-12-06T11:52:38.275Z,21.07
2018-12-06T11:55:01.368Z,19.27
2018-12-06T11:57:24.483Z,18.17
2018-12-06T11:59:47.621Z,16.37
2018-12-06T12:02:10.800Z,19.57
2018-12-06T12:04:33.905Z,15.07
2018-12-06T12:06:57.042Z,18.27
2018-12-06T12:09:20.157Z,14.77
2018-12-06T12:11:43.260Z,18.23
2018-12-06T12:14:06.427Z,16.53
2018-12-06T12:16:29.572Z,17.73
2018-12-06T12:18:52.703Z,13.47
2018-12-06T12:21:15.855Z,15.40
2018-12-06T12:23:38.985Z,16.17
2018-12-06T12:26:02.107Z,14.53
2018-12-06T12:28:25.254Z,13.13
2018-12-06T12:30:48.414Z,15.77
2018-12-06T12:33:11.532Z,15.87
2018-12-06T12:35:34.666Z,18.23
2018-12-06T12:37:57.792Z,16.00
2018-12-06T12:40:20.916Z,16.20
2018-12-06T12:42:44.026Z,16.17
2018-12-06T12:45:07.556Z,15.30
2018-12-06T12:47:30.811Z,16.30
2018-12-06T12:49:53.900Z,16.00
2018-12-06T12:52:17.046Z,15.53
2018-12-06T12:54:40.148Z,16.53
2018-12-06T12:57:03.344Z,17.37
2018-12-06T12:59:26.455Z,17.23
2018-12-06T13:01:49.614Z,19.63
2018-12-06T13:04:13.213Z,18.70
2018-12-06T13:06:36.335Z,19.40
2018-12-06T13:08:59.473Z,18.37
2018-12-06T13:11:22.598Z,17.57
2018-12-06T13:13:45.693Z,15.67
2018-12-06T13:16:08.799Z,16.77
2018-12-06T13:18:31.924Z,16.10
2018-12-06T13:20:55.090Z,17.63
2018-12-06T13:23:18.195Z,16.13
2018-12-06T13:25:41.345Z,17.53
2018-12-06T13:28:04.562Z,20.23
2018-12-06T13:30:27.748Z,16.30
2018-12-06T13:32:51.065Z,17.33
2018-12-06T13:35:14.219Z,19.03
2018-12-06T13:37:37.465Z,17.80
2018-12-06T13:40:00.593Z,19.40
2018-12-06T13:42:24.609Z,21.57
2018-12-06T13:44:47.776Z,16.97
2018-12-06T13:47:10.954Z,18.50
2018-12-06T13:49:34.136Z,20.00
2018-12-06T13:51:57.300Z,18.20
2018-12-06T13:54:26.725Z,18.43
2018-12-06T13:56:45.517Z,19.50
2018-12-06T13:59:08.622Z,26.50
2018-12-06T14:01:31.778Z,27.10
2018-12-06T14:03:54.890Z,21.10
2018-12-06T14:06:18.010Z,23.07
2018-12-06T14:08:41.117Z,23.93
2018-12-06T14:11:04.280Z,24.80
2018-12-06T14:13:27.464Z,26.33
2018-12-06T14:15:50.554Z,31.53
2018-12-06T14:18:13.682Z,28.83
2018-12-06T14:20:36.821Z,29.60
2018-12-06T14:22:59.981Z,32.00
2018-12-06T14:25:23.162Z,30.97
2018-12-06T14:27:46.340Z,27.80
2018-12-06T14:30:09.599Z,30.43
2018-12-06T14:32:32.803Z,28.37
2018-12-06T14:34:55.930Z,32.57
2018-12-06T14:37:19.104Z,27.80
2018-12-06T14:39:42.235Z,26.60
2018-12-06T14:42:05.549Z,33.53
2018-12-06T14:44:28.706Z,29.03
2018-12-06T14:46:51.848Z,26.43
2018-12-06T14:49:14.974Z,27.53
2018-12-06T14:51:38.155Z,23.07
2018-12-06T14:54:01.356Z,21.13
2018-12-06T14:56:24.523Z,23.80
2018-12-06T14:58:47.683Z,21.93
2018-12-06T15:01:10.795Z,23.80
2018-12-06T15:03:33.912Z,24.60
2018-12-06T15:05:57.043Z,29.27
2018-12-06T15:08:20.167Z,29.20
2018-12-06T15:10:43.296Z,27.33
2018-12-06T15:13:06.420Z,28.83
2018-12-06T15:15:29.528Z,30.03
2018-12-06T15:17:53.538Z,33.47
2018-12-06T15:20:16.666Z,28.23
2018-12-06T15:22:39.866Z,34.40
2018-12-06T15:25:03.035Z,43.43
2018-12-06T15:27:26.596Z,38.43
2018-12-06T15:29:50.187Z,37.33
2018-12-06T15:32:13.816Z,33.53
2018-12-06T15:34:37.010Z,28.33
2018-12-06T15:37:00.141Z,30.40
2018-12-06T15:39:23.278Z,31.63
2018-12-06T15:41:46.434Z,29.63
2018-12-06T15:44:09.567Z,32.00
2018-12-06T15:46:32.743Z,38.17
2018-12-06T15:48:55.883Z,36.10
2018-12-06T15:51:19.066Z,34.57
2018-12-06T15:53:42.263Z,30.00
2018-12-06T15:56:05.697Z,37.67
2018-12-06T15:58:28.851Z,40.20
2018-12-06T16:00:52.006Z,37.03
2018-12-06T16:03:15.222Z,33.63
2018-12-06T16:05:38.336Z,30.83
2018-12-06T16:08:01.465Z,32.67
2018-12-06T16:10:24.605Z,38.67
2018-12-06T16:12:47.761Z,31.67
2018-12-06T16:15:11.016Z,34.07
2018-12-06T16:17:34.223Z,31.27
2018-12-06T16:19:57.327Z,30.50
2018-12-06T16:22:20.520Z,26.63
2018-12-06T16:24:43.645Z,23.87
2018-12-06T16:27:07.654Z,26.13
2018-12-06T16:29:30.797Z,21.37
2018-12-06T16:31:53.925Z,22.53
2018-12-06T16:34:17.076Z,22.50
2018-12-06T16:36:40.293Z,19.53
2018-12-06T16:39:05.375Z,21.67
2018-12-06T16:41:28.521Z,20.43
2018-12-06T16:43:51.652Z,17.97
2018-12-06T16:46:14.811Z,19.93
2018-12-06T16:48:38.391Z,20.17
2018-12-06T16:51:01.524Z,17.90
2018-12-06T16:53:24.659Z,20.30
2018-12-06T16:55:47.831Z,24.67
2018-12-06T16:58:10.977Z,20.47
2018-12-06T17:00:34.113Z,24.87
2018-12-06T17:02:57.252Z,20.07
2018-12-06T17:06:10.341Z,24.20
2018-12-06T17:08:33.481Z,20.43
2018-12-06T17:10:56.625Z,22.77
2018-12-06T17:13:19.728Z,22.37
2018-12-06T17:15:42.874Z,22.73
2018-12-06T17:18:06.051Z,21.17
2018-12-06T17:20:29.775Z,25.50
2018-12-06T17:22:52.957Z,24.40
2018-12-06T17:25:16.102Z,24.50
2018-12-06T17:27:39.248Z,26.63
2018-12-06T17:30:02.507Z,26.07
2018-12-06T17:32:25.776Z,24.40
2018-12-06T17:34:48.956Z,29.03
2018-12-06T17:37:12.082Z,29.97
2018-12-06T17:39:36.701Z,29.57
2018-12-06T17:42:00.137Z,31.07
2018-12-06T17:44:23.255Z,27.90
2018-12-06T17:46:46.392Z,27.97
2018-12-06T17:49:09.520Z,31.17
2018-12-06T17:51:32.671Z,29.30
2018-12-06T17:53:55.793Z,28.83
2018-12-06T17:56:18.997Z,31.40
2018-12-06T17:58:42.117Z,28.67
2018-12-06T18:01:05.374Z,28.63
2018-12-06T18:03:28.557Z,26.20
2018-12-06T18:05:51.673Z,29.50
2018-12-06T18:08:14.849Z,31.13
2018-12-06T18:10:38.613Z,28.70
2018-12-06T18:13:01.738Z,27.10
2018-12-06T18:15:25.378Z,26.23
2018-12-06T18:17:48.514Z,28.47
2018-12-06T18:20:11.735Z,29.17
2018-12-06T18:22:34.860Z,26.57
2018-12-06T18:24:57.986Z,26.87
2018-12-06T18:27:21.152Z,28.30
2018-12-06T18:29:44.275Z,28.40
2018-12-06T18:32:07.412Z,32.00
2018-12-06T18:34:30.676Z,24.33
2018-12-06T18:36:53.797Z,28.17
2018-12-06T18:39:16.917Z,28.70
2018-12-06T18:41:40.090Z,31.00
2018-12-06T18:44:03.254Z,28.33
2018-12-06T18:46:26.502Z,30.13
2018-12-06T18:48:49.623Z,27.70
2018-12-06T18:51:12.737Z,28.20
2018-12-06T18:53:36.037Z,30.70
2018-12-06T18:55:59.232Z,30.80
2018-12-06T18:58:22.383Z,33.00
2018-12-06T19:00:45.512Z,37.50
2018-12-06T19:03:08.633Z,34.77
2018-12-06T19:05:31.796Z,36.07
2018-12-06T19:07:55.201Z,34.20
2018-12-06T19:10:18.325Z,33.43
2018-12-06T19:12:41.446Z,34.00
2018-12-06T19:15:04.780Z,38.03
2018-12-06T19:17:27.955Z,37.87
2018-12-06T19:19:51.721Z,38.17
2018-12-06T19:22:14.875Z,46.30
2018-12-06T19:24:38.068Z,43.50
2018-12-06T19:27:01.261Z,39.93
2018-12-06T19:29:25.329Z,34.77
2018-12-06T19:31:48.463Z,42.30
2018-12-06T19:34:11.603Z,40.80
2018-12-06T19:36:34.764Z,41.57
2018-12-06T19:38:58.804Z,40.13
2018-12-06T19:41:21.936Z,37.83
2018-12-06T19:43:45.126Z,46.33
2018-12-06T19:46:08.230Z,39.30
2018-12-06T19:48:31.387Z,39.67
2018-12-06T19:50:54.519Z,45.23
2018-12-06T19:53:17.637Z,37.97
2018-12-06T19:55:42.864Z,38.10
2018-12-06T19:58:06.008Z,41.70
2018-12-06T20:00:29.208Z,35.27
2018-12-06T20:02:52.335Z,41.30
2018-12-06T20:05:15.581Z,42.37
2018-12-06T20:07:38.764Z,45.47
2018-12-06T20:10:01.932Z,36.50
2018-12-06T20:12:25.067Z,38.40
2018-12-06T20:14:48.223Z,47.70
2018-12-06T20:17:11.390Z,42.20
2018-12-06T20:19:35.278Z,38.73
2018-12-06T20:21:58.415Z,39.13
2018-12-06T20:24:21.569Z,41.10
2018-12-06T20:26:44.725Z,39.07
2018-12-06T20:29:07.920Z,46.97
2018-12-06T20:31:31.116Z,38.57
2018-12-06T20:33:54.293Z,43.90
2018-12-06T20:36:17.420Z,34.17
2018-12-06T20:38:40.537Z,38.03
2018-12-06T20:41:03.739Z,41.57
2018-12-06T20:43:26.841Z,40.57
2018-12-06T20:45:50.007Z,41.20
2018-12-06T20:48:13.135Z,42.07
2018-12-06T20:50:36.266Z,39.23
2018-12-06T20:52:59.408Z,41.23
2018-12-06T20:55:22.530Z,37.27
2018-12-06T20:57:45.676Z,40.00
2018-12-06T21:00:08.938Z,45.23
2018-12-06T21:02:32.093Z,49.27
2018-12-06T21:04:55.224Z,43.87
2018-12-06T21:07:18.438Z,43.00
2018-12-06T21:09:41.699Z,39.57
2018-12-06T21:12:04.878Z,40.67
2018-12-06T21:14:27.999Z,38.57
2018-12-06T21:16:51.171Z,41.03
2018-12-06T21:19:14.389Z,42.97
2018-12-06T21:21:37.620Z,41.40
2018-12-06T21:24:00.762Z,40.90
2018-12-06T21:26:23.944Z,38.40
2018-12-06T21:28:47.133Z,40.00
2018-12-06T21:31:10.277Z,42.03
2018-12-06T21:33:33.522Z,43.27
2018-12-06T21:35:56.629Z,36.13
2018-12-06T21:38:19.764Z,42.90
2018-12-06T21:40:42.946Z,36.50
2018-12-06T21:43:06.057Z,35.80
2018-12-06T21:45:29.291Z,43.37
2018-12-06T21:47:52.388Z,43.20
2018-12-06T21:50:15.509Z,42.23
2018-12-06T21:52:38.642Z,35.27
2018-12-06T21:55:01.811Z,45.63
2018-12-06T21:57:24.948Z,40.10
2018-12-06T21:59:48.101Z,39.97
2018-12-06T22:02:23.294Z,40.80
2018-12-06T22:04:46.493Z,42.50
2018-12-06T22:07:09.599Z,41.97
2018-12-06T22:09:32.769Z,42.03
2018-12-06T22:11:55.898Z,40.67
2018-12-06T22:14:18.999Z,39.87
2018-12-06T22:16:42.376Z,39.40
2018-12-06T22:19:05.457Z,38.90
2018-12-06T22:21:28.580Z,41.03
2018-12-06T22:23:51.757Z,40.37
2018-12-06T22:26:14.946Z,39.50
2018-12-06T22:28:38.203Z,38.77
2018-12-06T22:31:01.360Z,42.47
2018-12-06T22:33:24.513Z,37.87
2018-12-06T22:35:47.654Z,39.03
2018-12-06T22:38:10.764Z,47.20
2018-12-06T22:40:34.011Z,35.20
2018-12-06T22:42:57.123Z,35.40
2018-12-06T22:48:15.771Z,35.33
2018-12-06T22:50:39.096Z,35.87
2018-12-06T22:53:02.207Z,36.93
2018-12-06T22:55:25.328Z,34.93
2018-12-06T22:57:48.440Z,30.17
2018-12-06T23:00:14.220Z,30.07
2018-12-06T23:02:37.486Z,33.70
2018-12-06T23:05:00.591Z,32.20
2018-12-06T23:07:23.702Z,34.23
2018-12-06T23:09:46.861Z,30.70
2018-12-06T23:12:10.027Z,30.67
2018-12-06T23:14:33.160Z,29.10
2018-12-06T23:16:56.272Z,28.57
2018-12-06T23:19:19.739Z,27.80
2018-12-06T23:21:42.911Z,36.53
2018-12-06T23:24:06.009Z,29.23
2018-12-06T23:26:29.448Z,27.97
2018-12-06T23:28:52.576Z,33.17
2018-12-06T23:31:15.711Z,26.97
2018-12-06T23:33:38.850Z,26.93
2018-12-06T23:36:02.005Z,30.03
2018-12-06T23:38:25.463Z,32.67
2018-12-06T23:40:48.568Z,34.80
2018-12-06T23:43:11.696Z,31.87
2018-12-06T23:45:34.870Z,27.47
2018-12-06T23:47:58.001Z,28.40
2018-12-06T23:50:21.641Z,27.30
2018-12-06T23:52:44.828Z,32.83
2018-12-06T23:55:08.006Z,25.33
2018-12-06T23:57:31.180Z,28.17
2018-12-06T23:59:54.339Z,24.83
